Map

Track Data

SID SEASON NUMBER BASIN SUBBASIN NAME ISO_TIME NATURE LAT LON WMO_WIND WMO_PRES WMO_AGENCY TRACK_TYPE DIST2LAND LANDFALL IFLAG USA_AGENCY USA_ATCF_ID USA_LAT USA_LON USA_RECORD USA_STATUS USA_WIND USA_PRES USA_SSHS USA_R34_NE USA_R34_SE USA_R34_SW USA_R34_NW USA_R50_NE USA_R50_SE USA_R50_SW USA_R50_NW USA_R64_NE USA_R64_SE USA_R64_SW USA_R64_NW USA_POCI USA_ROCI USA_RMW USA_EYE TOKYO_LAT TOKYO_LON TOKYO_GRADE TOKYO_WIND TOKYO_PRES TOKYO_R50_DIR TOKYO_R50_LONG TOKYO_R50_SHORT TOKYO_R30_DIR TOKYO_R30_LONG TOKYO_R30_SHORT TOKYO_LAND CMA_LAT CMA_LON CMA_CAT CMA_WIND CMA_PRES HKO_LAT HKO_LON HKO_CAT HKO_WIND HKO_PRES NEWDELHI_LAT NEWDELHI_LON NEWDELHI_GRADE NEWDELHI_WIND NEWDELHI_PRES NEWDELHI_CI NEWDELHI_DP NEWDELHI_POCI REUNION_LAT REUNION_LON REUNION_TYPE REUNION_WIND REUNION_PRES REUNION_TNUM REUNION_CI REUNION_RMW REUNION_R34_NE REUNION_R34_SE REUNION_R34_SW REUNION_R34_NW REUNION_R50_NE REUNION_R50_SE REUNION_R50_SW REUNION_R50_NW REUNION_R64_NE REUNION_R64_SE REUNION_R64_SW REUNION_R64_NW BOM_LAT BOM_LON BOM_TYPE BOM_WIND BOM_PRES BOM_TNUM BOM_CI BOM_RMW BOM_R34_NE BOM_R34_SE BOM_R34_SW BOM_R34_NW BOM_R50_NE BOM_R50_SE BOM_R50_SW BOM_R50_NW BOM_R64_NE BOM_R64_SE BOM_R64_SW BOM_R64_NW BOM_ROCI BOM_POCI BOM_EYE BOM_POS_METHOD BOM_PRES_METHOD NADI_LAT NADI_LON NADI_CAT NADI_WIND NADI_PRES WELLINGTON_LAT WELLINGTON_LON WELLINGTON_WIND WELLINGTON_PRES DS824_LAT DS824_LON DS824_STAGE DS824_WIND DS824_PRES TD9636_LAT TD9636_LON TD9636_STAGE TD9636_WIND TD9636_PRES TD9635_LAT TD9635_LON TD9635_WIND TD9635_PRES TD9635_ROCI NEUMANN_LAT NEUMANN_LON NEUMANN_CLASS NEUMANN_WIND NEUMANN_PRES MLC_LAT MLC_LON MLC_CLASS MLC_WIND MLC_PRES USA_GUST BOM_GUST BOM_GUST_PER REUNION_GUST REUNION_GUST_PER USA_SEAHGT USA_SEARAD_NE USA_SEARAD_SE USA_SEARAD_SW USA_SEARAD_NW STORM_SPEED STORM_DIR
1885260N22265 1885 40 NA GM NOT_NAMED 1885-09-17 00:00:00 TS 22.1333 -95.0000 40 atcf main 243 230 O____________O hurdat_atl AL041885 21.2000 -95.5000 TS 40 0 24.0000 -94.0000 TD 30 5 313
1885260N22265 1885 40 NA GM NOT_NAMED 1885-09-17 03:00:00 TS 22.3192 -95.2133 main 230 220 P____________P AL041885 21.4325 -95.7400 TS 40 0 24.0925 -94.1600 TD 30 6 315
1885260N22265 1885 40 NA GM NOT_NAMED 1885-09-17 06:00:00 TS 22.5333 -95.4333 40 atcf main 220 213 O____________O hurdat_atl AL041885 21.7000 -96.0000 TS 40 0 24.2000 -94.3000 TD 30 6 319
1885260N22265 1885 40 NA GM NOT_NAMED 1885-09-17 09:00:00 TS 22.7967 -95.6557 main 212 204 P____________P AL041885 22.0276 -96.2798 TS 40 0 24.3350 -94.4075 TD 32 7 327
1885260N22265 1885 40 NA GM NOT_NAMED 1885-09-17 12:00:00 TS 23.1000 -95.8333 40 atcf main 204 193 O____________O hurdat_atl AL041885 22.4000 -96.5000 TS 40 0 24.5000 -94.5000 TS 35 7 338
1885260N22265 1885 40 NA GM NOT_NAMED 1885-09-17 15:00:00 TS 23.4233 -95.9276 main 193 183 P____________P AL041885 22.7849 -96.5877 TS 40 0 24.7000 -94.6075 TS 37 7 349
1885260N22265 1885 40 NA GM NOT_NAMED 1885-09-17 18:00:00 TS 23.7667 -95.9667 40 atcf main 183 177 O____________O hurdat_atl AL041885 23.2000 -96.6000 TS 40 0 24.9000 -94.7000 TS 40 7 356
1885260N22265 1885 40 NA GM NOT_NAMED 1885-09-17 21:00:00 TS 24.1167 -95.9934 main 177 165 P____________P AL041885 23.6500 -96.6150 TS 40 0 25.0500 -94.7501 TS 42 7 357
1885260N22265 1885 40 NA GM NOT_NAMED 1885-09-18 00:00:00 TS 24.4667 -96.0000 40 atcf main 161 146 O____________O hurdat_atl AL041885 24.1000 -96.6000 TS 40 0 25.2000 -94.8000 TS 45 7 358
1885260N22265 1885 40 NA GM NOT_NAMED 1885-09-18 03:00:00 TS 24.8050 -96.0050 main 146 132 P____________P AL041885 24.5075 -96.5575 TS 40 0 25.4000 -94.8999 TS 45 7 1
1885260N22265 1885 40 NA GM NOT_NAMED 1885-09-18 06:00:00 TS 25.1333 -96.0000 40 atcf main 132 120 O____________O hurdat_atl AL041885 24.9000 -96.5000 TS 40 0 25.6000 -95.0000 TS 45 7 0
1885260N22265 1885 40 NA GM NOT_NAMED 1885-09-18 09:00:00 TS 25.4700 -95.9958 main 120 112 P____________P AL041885 25.3300 -96.4649 TS 45 0 25.7500 -95.0576 TS 45 6 3
1885260N22265 1885 40 NA GM NOT_NAMED 1885-09-18 12:00:00 TS 25.7667 -95.9667 50 atcf main 112 112 O____________O hurdat_atl AL041885 25.7000 -96.4000 TS 50 0 25.9000 -95.1000 TS 45 5 12
1885260N22265 1885 40 NA GM NOT_NAMED 1885-09-18 15:00:00 TS 25.9867 -95.8834 main 119 119 P____________P AL041885 25.9300 -96.2500 TS 50 0 26.1000 -95.1500 TS 45 4 20
1885260N22265 1885 40 NA GM NOT_NAMED 1885-09-18 18:00:00 TS 26.1667 -95.8000 50 atcf main 131 131 O____________O hurdat_atl AL041885 26.1000 -96.1000 TS 50 0 26.3000 -95.2000 TS 45 4 15
1885260N22265 1885 40 NA GM NOT_NAMED 1885-09-18 21:00:00 TS 26.3575 -95.7783 main 137 137 P____________P AL041885 26.3075 -96.0424 TS 50 0 26.4575 -95.2500 TS 45 4 6
1885260N22265 1885 40 NA GM NOT_NAMED 1885-09-19 00:00:00 TS 26.5333 -95.7667 50 atcf main 141 141 O____________O hurdat_atl AL041885 26.5000 -96.0000 TS 50 0 26.6000 -95.3000 TS 45 3 7
1885260N22265 1885 40 NA GM NOT_NAMED 1885-09-19 03:00:00 TS 26.6883 -95.7242 main 159 159 P____________P AL041885 26.6575 -95.9075 TS 50 0 26.7500 -95.3575 TS 45 3 16
1885260N22265 1885 40 NA GM NOT_NAMED 1885-09-19 06:00:00 TS 26.8333 -95.6667 50 atcf main 165 165 O____________O hurdat_atl AL041885 26.8000 -95.8000 TS 50 0 26.9000 -95.4000 TS 45 3 20
1885260N22265 1885 40 NA GM NOT_NAMED 1885-09-19 09:00:00 TS 26.9858 -95.6075 main 175 165 P____________P AL041885 26.9500 -95.7075 TS 50 0 27.0575 -95.4075 TS 42 3 21
1885260N22265 1885 40 NA GM NOT_NAMED 1885-09-19 12:00:00 TS 27.1333 -95.5333 50 atcf main 169 150 O____________O hurdat_atl AL041885 27.1000 -95.6000 TS 50 0 27.2000 -95.4000 TS 40 3 27
1885260N22265 1885 40 NA GM NOT_NAMED 1885-09-19 15:00:00 TS 27.2717 -95.4408 main 155 145 P____________P AL041885 27.2500 -95.4575 TS 50 0 27.3150 -95.4075 TS 37 3 33
1885260N22265 1885 40 NA GM NOT_NAMED 1885-09-19 18:00:00 TS 27.4000 -95.3333 50 atcf main 150 140 O____________O hurdat_atl AL041885 27.4000 -95.3000 TS 50 0 27.4000 -95.4000 TS 35 3 38
1885260N22265 1885 40 NA GM NOT_NAMED 1885-09-19 21:00:00 TS 27.5266 -95.2217 main 145 136 P____________P AL041885 27.5650 -95.1575 TS 50 0 27.4500 -95.3500 TS 32 3 41
1885260N22265 1885 40 NA GM NOT_NAMED 1885-09-20 00:00:00 TS 27.6333 -95.1000 50 atcf main 142 133 O____________O hurdat_atl AL041885 27.7000 -95.0000 TS 50 0 27.5000 -95.3000 TD 30 3 51
1885260N22265 1885 40 NA GM NOT_NAMED 1885-09-20 03:00:00 TS 27.7050 -94.9741 main 139 132 P____________P AL041885 27.7575 -94.8149 TS 50 0 27.6000 -95.2925 TD 30 3 61
1885260N22265 1885 40 NA GM NOT_NAMED 1885-09-20 06:00:00 TS 27.7667 -94.8333 50 atcf main 136 136 O____________O hurdat_atl AL041885 27.8000 -94.6000 TS 50 0 27.7000 -95.3000 TD 30 3 61
1885260N22265 1885 40 NA GM NOT_NAMED 1885-09-20 09:00:00 TS 27.8398 -94.7065 main 140 130 P____________P AL041885 27.8846 -94.4023 TS 50 0 27.7500 -95.3150 TD 30 3 56
1885260N22265 1885 40 NA GM NOT_NAMED 1885-09-20 12:00:00 TS 27.9200 -94.5800 50 atcf main 136 130 O____________O hurdat_atl AL041885 28.0000 -94.1000 TS 50 0 27.8000 -95.3000 TD 30 3 53
1885260N22265 1885 40 NA GM NOT_NAMED 1885-09-20 15:00:00 TS 28.0171 -94.4423 main 136 127 P____________P AL041885 28.1461 -93.5982 TS 50 0 27.9000 -95.2225 TD 30 2 42
1885260N22265 1885 40 NA GM NOT_NAMED 1885-09-20 18:00:00 MX 28.1000 -94.4000 50 atcf main 127 101 O____________O hurdat_atl AL041885 28.3000 -93.0000 TS 50 0 28.0000 -95.1000 EX 30 5 275
1885260N22265 1885 40 NA GM NOT_NAMED 1885-09-20 21:00:00 ET 28.0575 -94.9575 main 97 97 _____________P AL041885 TS -1 28.0575 -94.9575 EX 30 4 270
1885260N22265 1885 40 NA GM NOT_NAMED 1885-09-21 00:00:00 ET 28.1000 -94.8000 50 atcf main 106 106 _____________O AL041885 TS -1 28.1000 -94.8000 EX 30 3 71
1885260N22265 1885 40 NA GM NOT_NAMED 1885-09-21 03:00:00 ET 28.1500 -94.6425 50 atcf main 106 106 _____________P AL041885 TS -1 28.1500 -94.6425 EX 30 3 69
1885260N22265 1885 40 NA GM NOT_NAMED 1885-09-21 06:00:00 ET 28.2000 -94.5000 50 atcf main 112 110 _____________O AL041885 TS -1 28.2000 -94.5000 EX 30 2 60
1885260N22265 1885 40 NA GM NOT_NAMED 1885-09-21 09:00:00 ET 28.2725 -94.4001 main 110 110 _____________P AL041885 TS -1 28.2725 -94.4001 EX 30 2 60
1885260N22265 1885 40 NA GM NOT_NAMED 1885-09-21 12:00:00 ET 28.3000 -94.3000 50 atcf main 117 117 _____________O AL041885 TS -1 28.3000 -94.3000 EX 30 2 105
1885260N22265 1885 40 NA GM NOT_NAMED 1885-09-21 15:00:00 ET 28.2150 -94.1499 main 139 139 _____________P AL041885 TS -1 28.2150 -94.1499 EX 30 3 127
1885260N22265 1885 40 NA GM NOT_NAMED 1885-09-21 18:00:00 ET 28.1000 -94.0000 40 atcf main 154 154 _____________O AL041885 TS -1 28.1000 -94.0000 EX 30 3 127
1885260N22265 1885 40 NA GM NOT_NAMED 1885-09-21 21:00:00 ET 28.0425 -93.8926 main 169 169 _____________P AL041885 TS -1 28.0425 -93.8926 EX 30 2 120
1885260N22265 1885 40 NA GM NOT_NAMED 1885-09-22 00:00:00 TS 28.0000 -93.8000 50 atcf main 176 176 _____________O AL041885 TS -1 28.0000 -93.8000 TD 30 2 119
1885260N22265 1885 40 NA GM NOT_NAMED 1885-09-22 03:00:00 TS 27.9500 -93.7000 main 184 191 _____________P AL041885 TS -1 27.9500 -93.7000 TD 30 2 120
1885260N22265 1885 40 NA GM NOT_NAMED 1885-09-22 06:00:00 TS 27.9000 -93.6000 60 atcf main 198 198 _____________O AL041885 TS -1 27.9000 -93.6000 TD 30 2 115
1885260N22265 1885 40 NA GM NOT_NAMED 1885-09-22 09:00:00 TS 27.8724 -93.5151 main 203 203 _____________P AL041885 TS -1 27.8724 -93.5151 TD 30 2 120
1885260N22265 1885 40 NA GM NOT_NAMED 1885-09-22 12:00:00 TS 27.8000 -93.4000 70 atcf main 215 212 _____________O AL041885 TS -1 27.8000 -93.4000 TD 30 4 133
1885260N22265 1885 40 NA GM NOT_NAMED 1885-09-22 15:00:00 TS 27.6226 -93.2074 main 229 226 _____________P AL041885 TS -1 27.6226 -93.2074 TD 32 5 139
1885260N22265 1885 40 NA GM NOT_NAMED 1885-09-22 18:00:00 TS 27.4000 -93.0000 70 atcf main 244 244 _____________O AL041885 TS -1 27.4000 -93.0000 TS 35 5 143
1885260N22265 1885 40 NA GM NOT_NAMED 1885-09-22 21:00:00 TS 27.1925 -92.8426 main 261 261 _____________P AL041885 TS -1 27.1925 -92.8426 TS 37 5 146
1885260N22265 1885 40 NA GM NOT_NAMED 1885-09-23 00:00:00 TS 27.0000 -92.7000 80 atcf main 281 281 _____________O AL041885 TS -1 27.0000 -92.7000 TS 40 4 143
1885260N22265 1885 40 NA GM NOT_NAMED 1885-09-23 03:00:00 TS 26.8500 -92.5501 main 302 295 _____________P AL041885 TS -1 26.8500 -92.5501 TS 42 4 138
1885260N22265 1885 40 NA GM NOT_NAMED 1885-09-23 06:00:00 TS 26.7000 -92.4000 80 atcf main 305 305 _____________O AL041885 TS -1 26.7000 -92.4000 TS 45 5 144
1885260N22265 1885 40 NA GM NOT_NAMED 1885-09-23 09:00:00 TS 26.4850 -92.2575 main 321 317 _____________P AL041885 TS -1 26.4850 -92.2575 TS 47 5 146
1885260N22265 1885 40 NA GM NOT_NAMED 1885-09-23 12:00:00 TS 26.3000 -92.1000 70 atcf main 334 330 _____________O AL041885 TS -1 26.3000 -92.1000 TS 50 4 129
1885260N22265 1885 40 NA GM NOT_NAMED 1885-09-23 15:00:00 TS 26.2275 -91.9001 main 338 333 _____________P AL041885 TS -1 26.2275 -91.9001 TS 50 4 106
1885260N22265 1885 40 NA GM NOT_NAMED 1885-09-23 18:00:00 TS 26.2000 -91.7000 60 atcf main 333 331 _____________O AL041885 TS -1 26.2000 -91.7000 TS 50 3 104
1885260N22265 1885 40 NA GM NOT_NAMED 1885-09-23 21:00:00 TS 26.1499 -91.5500 main 342 323 _____________P AL041885 TS -1 26.1499 -91.5500 TS 50 13 90
1885260N22265 1885 40 NA GM NOT_NAMED 1885-09-24 00:00:00 TS 26.2000 -90.2000 40 atcf main 323 305 O____________O hurdat_atl AL061885 26.4000 -87.8000 TS 40 0 26.1000 -91.4000 TS 50 18 85
1885260N22265 1885 40 NA GM NOT_NAMED 1885-09-24 03:00:00 TS 26.2975 -89.5250 main 304 290 P____________P AL061885 26.5454 -87.8450 TS 40 0 26.0425 -91.2000 TS 50 10 77
1885260N22265 1885 40 NA GM NOT_NAMED 1885-09-24 06:00:00 TS 26.4200 -89.1400 40 atcf main 290 279 O____________O hurdat_atl AL061885 26.7000 -87.9000 TS 40 0 26.0000 -91.0000 TS 50 6 65
1885260N22265 1885 40 NA GM NOT_NAMED 1885-09-24 09:00:00 TS 26.5517 -88.9142 main 268 257 P____________P AL061885 26.8425 -87.9500 TS 40 0 25.9700 -90.8425 TS 50 3 41
1885260N22265 1885 40 NA GM NOT_NAMED 1885-09-24 12:00:00 TS 26.6667 -88.9000 40 atcf main 257 246 O____________O hurdat_atl AL061885 27.0000 -88.0000 TS 40 0 26.0000 -90.7000 TS 50 3 7
1885260N22265 1885 40 NA GM NOT_NAMED 1885-09-24 15:00:00 TS 26.8400 -88.8784 main 246 224 P____________P AL061885 27.1925 -88.0425 TS 40 0 26.1350 -90.5501 TS 50 4 6
1885260N22265 1885 40 NA GM NOT_NAMED 1885-09-24 18:00:00 TS 27.0333 -88.8667 40 atcf main 224 201 O____________O hurdat_atl AL061885 27.4000 -88.1000 TS 40 0 26.3000 -90.4000 TS 50 4 357
1885260N22265 1885 40 NA GM NOT_NAMED 1885-09-24 21:00:00 TS 27.2000 -88.8833 main 201 179 P____________P AL061885 27.6000 -88.2000 TS 45 0 26.4000 -90.2499 TS 50 3 353
1885260N22265 1885 40 NA GM NOT_NAMED 1885-09-25 00:00:00 TS 27.3667 -88.9000 50 atcf main 179 168 O____________O hurdat_atl AL061885 27.8000 -88.3000 TS 50 0 26.5000 -90.1000 TS 50 3 0
1885260N22265 1885 40 NA GM NOT_NAMED 1885-09-25 03:00:00 TS 27.5450 -88.8834 main 168 146 P____________P AL061885 27.9925 -88.3501 TS 50 0 26.6500 -89.9500 TS 50 4 6
1885260N22265 1885 40 NA GM NOT_NAMED 1885-09-25 06:00:00 TS 27.7333 -88.8667 50 atcf main 146 124 O____________O hurdat_atl AL061885 28.2000 -88.4000 TS 50 0 26.8000 -89.8000 TS 50 4 2
1885260N22265 1885 40 NA GM NOT_NAMED 1885-09-25 09:00:00 TS 27.9383 -88.8783 main 124 102 P____________P AL061885 28.4575 -88.4924 TS 50 0 26.9000 -89.6499 TS 50 4 355
1885260N22265 1885 40 NA GM NOT_NAMED 1885-09-25 12:00:00 TS 28.1333 -88.9000 50 atcf main 102 80 O____________O hurdat_atl AL061885 28.7000 -88.6000 TS 50 0 27.0000 -89.5000 TS 50 4 352
1885260N22265 1885 40 NA GM NOT_NAMED 1885-09-25 15:00:00 TS 28.2933 -88.9192 main 80 69 P____________P AL061885 28.8650 -88.7075 TS 50 0 27.1500 -89.3425 TS 50 3 355
1885260N22265 1885 40 NA GM NOT_NAMED 1885-09-25 18:00:00 TS 28.4333 -88.9333 50 atcf main 69 48 O____________O hurdat_atl AL061885 29.0000 -88.8000 TS 50 0 27.3000 -89.2000 TS 50 3 354
1885260N22265 1885 40 NA GM NOT_NAMED 1885-09-25 21:00:00 TS 28.5575 -88.9350 main 48 38 P____________P AL061885 29.1363 -88.8526 TS 55 0 27.4000 -89.0999 TS 50 3 0
1885260N22265 1885 40 NA GM NOT_NAMED 1885-09-26 00:00:00 TS 28.7000 -88.9333 60 atcf main 38 22 O____________O hurdat_atl AL061885 29.3000 -88.9000 TS 60 0 27.5000 -89.0000 TS 50 3 0
1885260N22265 1885 40 NA GM NOT_NAMED 1885-09-26 03:00:00 TS 28.9049 -88.9394 main 22 14 P____________P AL061885 29.5324 -88.9841 TS 60 0 27.6500 -88.8501 TS 50 4 5
1885260N22265 1885 40 NA GM NOT_NAMED 1885-09-26 04:00:00 TS 28.9675 -88.9325 60 atcf main 14 9 O____________P hurdat_atl AL061885 29.6000 -89.0000 L TS 60 0 27.7025 -88.7976 TS 50 3 16
1885260N22265 1885 40 NA GM NOT_NAMED 1885-09-26 06:00:00 TS 29.0667 -88.9000 60 atcf main 9 9 O____________O hurdat_atl AL061885 29.7000 -89.0000 TS 60 0 27.8000 -88.7000 TS 50 3 10
1885260N22265 1885 40 NA GM NOT_NAMED 1885-09-26 09:00:00 TS 29.2043 -88.8958 main 14 14 P____________P AL061885 29.8565 -89.0512 TS 60 0 27.9000 -88.5849 TS 47 3 0
1885260N22265 1885 40 NA GM NOT_NAMED 1885-09-26 12:00:00 TS 29.3333 -88.9000 60 atcf main 22 22 O____________O hurdat_atl AL061885 30.0000 -89.1000 TS 60 0 28.0000 -88.5000 TS 45 3 9
1885260N22265 1885 40 NA GM NOT_NAMED 1885-09-26 15:00:00 TS 29.4575 -88.8575 main 36 36 P____________P AL061885 30.1150 -89.0650 TS 60 0 28.1425 -88.4425 TS 45 3 21
1885260N22265 1885 40 NA GM NOT_NAMED 1885-09-26 18:00:00 TS 29.5667 -88.8000 60 atcf main 51 49 O____________O hurdat_atl AL061885 30.2000 -89.0000 TS 60 0 28.3000 -88.4000 TS 45 2 26
1885260N22265 1885 40 NA GM NOT_NAMED 1885-09-26 21:00:00 TS 29.6550 -88.7500 main 58 58 P____________P AL061885 30.2575 -88.9500 TS 60 0 28.4500 -88.3500 TS 45 2 29
1885260N22265 1885 40 NA GM NOT_NAMED 1885-09-27 00:00:00 TS 29.7333 -88.7000 60 atcf main 58 55 O____________O hurdat_atl AL061885 30.3000 -88.9000 TS 60 0 28.6000 -88.3000 TS 45 2 25
1885260N22265 1885 40 NA GM NOT_NAMED 1885-09-27 03:00:00 TS 29.8192 -88.6550 main 55 45 P____________P AL061885 30.3500 -88.8575 TS 55 0 28.7575 -88.2500 TS 45 2 29
1885260N22265 1885 40 NA GM NOT_NAMED 1885-09-27 06:00:00 TS 29.9000 -88.6000 50 atcf main 45 33 O____________O hurdat_atl AL061885 30.4000 -88.8000 TS 50 0 28.9000 -88.2000 TS 45 2 39
1885260N22265 1885 40 NA GM NOT_NAMED 1885-09-27 09:00:00 TS 29.9642 -88.5192 main 33 33 P____________P AL061885 30.4500 -88.7075 TS 50 0 28.9925 -88.1425 TS 45 2 47
1885260N22265 1885 40 NA GM NOT_NAMED 1885-09-27 12:00:00 TS 30.0333 -88.4333 50 atcf main 34 24 O____________O hurdat_atl AL061885 30.5000 -88.6000 TS 50 0 29.1000 -88.1000 TS 45 2 37
1885260N22265 1885 40 NA GM NOT_NAMED 1885-09-27 15:00:00 TS 30.1333 -88.3667 main 24 14 P____________P AL061885 30.5575 -88.5075 TS 45 0 29.2850 -88.0850 TS 45 2 30
1885260N22265 1885 40 NA GM NOT_NAMED 1885-09-27 18:00:00 TS 30.2333 -88.3000 40 atcf main 22 9 O____________O hurdat_atl AL061885 30.6000 -88.4000 TS 40 0 29.5000 -88.1000 TS 45 2 36
1885260N22265 1885 40 NA GM NOT_NAMED 1885-09-27 21:00:00 TS 30.3050 -88.2216 main 9 0 P____________P AL061885 30.6075 -88.2575 TS 40 0 29.7000 -88.1499 TS 42 2 47
1885260N22265 1885 40 NA GM NOT_NAMED 1885-09-28 00:00:00 TS 30.3667 -88.1333 40 atcf main 0 0 O____________O hurdat_atl AL061885 30.6000 -88.1000 TS 40 0 29.9000 -88.2000 TS 40 2 50
1885260N22265 1885 40 NA GM NOT_NAMED 1885-09-28 03:00:00 TS 30.4358 -88.0408 main 9 0 P____________P AL061885 30.6000 -87.9575 TS 40 0 30.1075 -88.2075 TS 37 2 52
1885260N22265 1885 40 NA GM NOT_NAMED 1885-09-28 06:00:00 TS 30.5000 -87.9333 40 atcf main 0 0 O____________O hurdat_atl AL061885 30.6000 -87.8000 TS 40 0 30.3000 -88.2000 TS 35 2 60
1885260N22265 1885 40 NA NA NOT_NAMED 1885-09-28 09:00:00 TS 30.5475 -87.8174 main 0 0 P____________P AL061885 30.6000 -87.6075 TS 40 0 30.4424 -88.2372 TS 32 3 66
1885260N22265 1885 40 NA NA NOT_NAMED 1885-09-28 12:00:00 TS 30.6000 -87.6667 40 atcf main 0 0 O____________O hurdat_atl AL061885 30.6000 -87.4000 TS 40 0 30.6000 -88.2000 TD 30 3 65
1885260N22265 1885 40 NA NA NOT_NAMED 1885-09-28 15:00:00 TS 30.6883 -87.4726 main 0 0 P____________P AL061885 30.5999 -87.2075 TS 40 0 30.8650 -88.0029 TD 30 4 66
1885260N22265 1885 40 NA NA NOT_NAMED 1885-09-28 18:00:00 TS 30.7667 -87.2333 40 atcf main 0 0 O____________O hurdat_atl AL061885 30.6000 -87.0000 TS 40 0 31.1000 -87.7000 TD 30 5 76
1885260N22265 1885 40 NA NA NOT_NAMED 1885-09-28 21:00:00 TS 30.7958 -86.9624 main 0 0 P____________P AL061885 30.6000 -86.7575 TS 35 0 31.1874 -87.3723 TD 30 5 86
1885260N22265 1885 40 NA NA NOT_NAMED 1885-09-29 00:00:00 TS 30.8000 -86.6667 30 atcf main 0 0 O____________O hurdat_atl AL061885 30.6000 -86.5000 TD 30 -1 31.2000 -87.0000 TD 30 5 89
1885260N22265 1885 40 NA NA NOT_NAMED 1885-09-29 03:00:00 TS 30.8074 -86.3717 main 0 0 P____________P AL061885 30.6074 -86.2576 TD 30 -1 31.2075 -86.5999 TD 30 5 90
1885260N22265 1885 40 NA NA NOT_NAMED 1885-09-29 06:00:00 MX 30.8000 -86.0667 30 atcf main 0 0 O____________O hurdat_atl AL061885 30.6000 -86.0000 TD 30 -1 31.2000 -86.2000 EX 30 5 94
1885260N22265 1885 40 NA NA NOT_NAMED 1885-09-29 09:00:00 MX 30.7741 -85.7475 main 0 0 P____________P AL061885 30.5575 -85.7075 TD 30 -1 31.2074 -85.8276 EX 30 5 97
1885260N22265 1885 40 NA NA NOT_NAMED 1885-09-29 12:00:00 MX 30.7333 -85.4333 30 atcf main 0 0 O____________O hurdat_atl AL061885 30.5000 -85.4000 TD 30 -1 31.2000 -85.5000 EX 30 5 100
1885260N22265 1885 40 NA NA NOT_NAMED 1885-09-29 15:00:00 MX 30.6832 -85.1550 main 0 0 P____________P AL061885 30.4498 -85.1151 TD 30 -1 31.1499 -85.2349 EX 27 5 102
1885260N22265 1885 40 NA NA NOT_NAMED 1885-09-29 18:00:00 MX 30.6333 -84.8667 30 atcf main 0 0 O____________O hurdat_atl AL061885 30.4000 -84.8000 TD 30 -1 31.1000 -85.0000 EX 25 6 99
1885260N22265 1885 40 NA NA NOT_NAMED 1885-09-29 21:00:00 MX 30.6000 -84.5217 main 0 0 P____________P AL061885 30.3501 -84.4075 TD 30 -1 31.1000 -84.7501 EX 25 6 96
1885260N22265 1885 40 NA NA NOT_NAMED 1885-09-30 00:00:00 MX 30.5667 -84.1667 30 atcf main 0 0 O____________O hurdat_atl AL061885 30.3000 -84.0000 TD 30 -1 31.1000 -84.5000 EX 25 6 99
1885260N22265 1885 40 NA NA NOT_NAMED 1885-09-30 03:00:00 MX 30.5116 -83.8350 main 0 0 P____________P AL061885 30.2425 -83.6275 TD 30 -1 31.0500 -84.2499 EX 22 6 104
1885260N22265 1885 40 NA NA NOT_NAMED 1885-09-30 06:00:00 MX 30.4182 -83.4909 30 atcf main 0 0 O____________O hurdat_atl AL061885 30.2000 -83.3000 TD 30 -1 31.0000 -84.0000 EX 20 6 107
1885260N22265 1885 40 NA NA NOT_NAMED 1885-09-30 09:00:00 MX 30.3512 -83.2081 main 0 0 P____________P AL061885 30.1921 -83.0726 TD 30 -1 30.9876 -83.7501 EX 20 5 104
1885260N22265 1885 40 NA NA NOT_NAMED 1885-09-30 12:00:00 MX 30.2889 -82.8778 30 atcf main 0 0 O____________O hurdat_atl AL061885 30.2000 -82.8000 TD 30 -1 31.0000 -83.5000 EX 20 8 102
1885260N22265 1885 40 NA NA NOT_NAMED 1885-09-30 15:00:00 TS 30.1852 -82.3373 main 0 0 P_____________ AL061885 30.1852 -82.3373 TD 30 -1 EX 9 95
1885260N22265 1885 40 NA NA NOT_NAMED 1885-09-30 18:00:00 TS 30.2000 -81.8000 30 atcf main 0 0 O_____________ hurdat_atl AL061885 30.2000 -81.8000 TD 30 -1 9 84
1885260N22265 1885 40 NA NA NOT_NAMED 1885-09-30 21:00:00 TS 30.2771 -81.3149 main 19 19 P_____________ AL061885 30.2771 -81.3149 TD 35 0 9 77
1885260N22265 1885 40 NA NA NOT_NAMED 1885-10-01 00:00:00 TS 30.4000 -80.8000 40 atcf main 66 66 O_____________ hurdat_atl AL061885 30.4000 -80.8000 TS 40 0 10 76
1885260N22265 1885 40 NA NA NOT_NAMED 1885-10-01 03:00:00 TS 30.5278 -80.1849 main 116 116 P_____________ AL061885 30.5278 -80.1849 TS 40 0 11 74
1885260N22265 1885 40 NA NA NOT_NAMED 1885-10-01 06:00:00 TS 30.7000 -79.6000 40 atcf main 171 171 O_____________ hurdat_atl AL061885 30.7000 -79.6000 TS 40 0 9 66
1885260N22265 1885 40 NA NA NOT_NAMED 1885-10-01 09:00:00 TS 30.9119 -79.1844 main 195 192 P_____________ AL061885 30.9119 -79.1844 TS 45 0 8 54
1885260N22265 1885 40 NA NA NOT_NAMED 1885-10-01 12:00:00 TS 31.2000 -78.8000 50 atcf main 192 187 O_____________ hurdat_atl AL061885 31.2000 -78.8000 TS 50 0 10 49
1885260N22265 1885 40 NA NA NOT_NAMED 1885-10-01 15:00:00 TS 31.5701 -78.3002 main 187 179 P_____________ AL061885 31.5701 -78.3002 TS 55 0 12 47
1885260N22265 1885 40 NA NA NOT_NAMED 1885-10-01 18:00:00 TS 32.0000 -77.8000 60 atcf main 186 176 O_____________ hurdat_atl AL061885 32.0000 -77.8000 TS 60 0 12 42
1885260N22265 1885 40 NA NA NOT_NAMED 1885-10-01 21:00:00 TS 32.4423 -77.3771 main 176 144 P_____________ AL061885 32.4423 -77.3771 TS 60 0 11 37
1885260N22265 1885 40 NA NA NOT_NAMED 1885-10-02 00:00:00 TS 32.9000 -77.0000 60 atcf main 144 135 O_____________ hurdat_atl AL061885 32.9000 -77.0000 TS 60 0 11 34
1885260N22265 1885 40 NA NA NOT_NAMED 1885-10-02 03:00:00 TS 33.3648 -76.6422 main 140 101 P_____________ AL061885 33.3648 -76.6422 TS 60 0 11 33
1885260N22265 1885 40 NA NA NOT_NAMED 1885-10-02 06:00:00 TS 33.8000 -76.3000 60 atcf main 101 76 O_____________ hurdat_atl AL061885 33.8000 -76.3000 TS 60 0 9 34
1885260N22265 1885 40 NA NA NOT_NAMED 1885-10-02 09:00:00 TS 34.1417 -76.0082 main 81 70 P_____________ AL061885 34.1417 -76.0082 TS 65 1 9 40
1885260N22265 1885 40 NA NA NOT_NAMED 1885-10-02 12:00:00 TS 34.5000 -75.6000 70 atcf main 77 77 O_____________ hurdat_atl AL061885 34.5000 -75.6000 HU 70 1 12 47
1885260N22265 1885 40 NA NA NOT_NAMED 1885-10-02 15:00:00 TS 34.9668 -74.9333 main 98 98 P_____________ AL061885 34.9668 -74.9333 HU 70 1 16 51
1885260N22265 1885 40 NA NA NOT_NAMED 1885-10-02 18:00:00 TS 35.5000 -74.1000 70 atcf main 130 O_____________ hurdat_atl AL061885 35.5000 -74.1000 HU 70 1 17 52

About IBTrACS Database

This database is a web-friendly format of International Best Track Archive for Climate Stewardship (IBTrACS), a global best track data archive curated by NOAA dating back to 1842.

Updated: 2021-10-21